• Join FlightAware (Why Join?)
  • Login
  • US Flag 
02:02AM EDT


 

Airport Tracker/Info


-or-


 

Live Flight TrackerFlight Track Log ✈ EJA102 ✈ 11-Jun-2014 ✈ KPMP - KLZU

Flight Track Log - Related Links

Times and Time Zones

All times are in EDT time to prevent confusion due to time zone crossing. See the EJA102 flight status page for this flight to view local times or setup timezone preferences in your user account.

Time Position Orientation Groundspeed Altitude Reporting Facility
EDT Latitude Longitude Course Direction KTS MPH feet Rate Location/Type
04:07PM 26.2589 -80.1194 293° West 166 191 500  Level Miami Center
04:08PM 26.2822 -80.1817 293° West 204 235 3,200 2,400 Climbing Miami Center
04:09PM 26.2994 -80.2475 286° West 226 260 5,800 2,820 Climbing Miami Center
04:10PM 26.3181 -80.3186 286° West 226 260 9,100 2,460 Climbing Miami Center
04:11PM 26.3394 -80.3878 289° West 237 273 10,900 1,920 Climbing Miami Center
04:12PM 26.4250 -80.4269 338° Northwest 310 357 13,100 2,040 Climbing Miami Center
04:13PM 26.5078 -80.4503 346° North 307 353 15,200 1,860 Climbing Miami Center
04:14PM 26.5947 -80.4783 344° North 322 371 17,000 1,800 Climbing Miami Center
04:15PM 26.6872 -80.5197 338° Northwest 329 379 19,000 1,800 Climbing Miami Center
04:16PM 26.7750 -80.5569 339° North 334 384 20,800 1,500 Climbing Miami Center
04:17PM 26.8578 -80.5925 339° North 341 392 22,100 1,320 Climbing Miami Center
04:18PM 26.9514 -80.6325 339° North 357 411 23,600 1,260 Climbing Miami Center
04:19PM 27.0469 -80.6744 339° North 364 419 24,700 1,080 Climbing Miami Center
04:20PM 27.1464 -80.7181 339° North 377 434 25,900 1,260 Climbing Miami Center
04:21PM 27.2678 -80.7711 339° North 388 447 27,300 1,200 Climbing Miami Center
04:22PM 27.3689 -80.8150 339° North 395 455 28,500 1,080 Climbing Miami Center
04:23PM 27.4719 -80.8608 338° Northwest 397 457 29,600 1,020 Climbing Miami Center
04:24PM 27.5767 -80.9072 339° North 406 467 30,600 900 Climbing Miami Center
04:25PM 27.6831 -80.9528 339° North 412 474 31,500 900 Climbing Miami Center
04:26PM 27.7883 -80.9989 339° North 410 472 32,500 1,020 Climbing Miami Center
04:27PM 27.9167 -81.0553 339° North 411 473 33,600 1,020 Climbing Miami Center
04:28PM 28.0228 -81.1031 338° Northwest 412 474 34,600 840 Climbing Miami Center
04:29PM 28.1344 -81.1519 339° North 415 478 35,400 780 Climbing Miami Center
04:30PM 28.2492 -81.2033 338° Northwest 419 482 36,200 780 Climbing Miami Center
04:32PM 28.3625 -81.2533 339° North 419 482 37,000 660 Climbing Miami Center
04:33PM 28.4558 -81.2947 339° North 419 482 37,600 720 Climbing Miami Center
04:34PM 28.5881 -81.3494 340° North 421 484 38,500 660 Climbing Miami Center
04:35PM 28.6919 -81.3842 344° North 417 480 39,000 240 Climbing Miami Center
04:36PM 28.8072 -81.4214 344° North 427 491 39,000 -60 Level Miami Center
04:37PM 28.9256 -81.4608 344° North 438 504 38,900 -60 Descending Miami Center
04:38PM 29.0475 -81.5006 344° North 449 517 38,900  Level Miami Center
04:39PM 29.1708 -81.5431 343° North 452 520 39,000 360 Climbing Miami Center
04:40PM 29.3136 -81.5908 344° North 448 516 39,700 600 Climbing Miami Center
04:41PM 29.4319 -81.6292 344° North 445 512 40,300 540 Climbing Miami Center
04:42PM 29.5556 -81.6703 344° North 436 502 40,900 240 Climbing Miami Center
04:43PM 29.6703 -81.7086 344° North 433 498 40,900  Level Miami Center
04:44PM 29.8147 -81.7578 344° North 437 503 41,000  Climbing Jacksonville Center
04:45PM 29.9342 -81.7972 344° North 437 503 40,900 -60 Descending Jacksonville Center
04:46PM 30.0408 -81.8297 345° North 437 503 40,900  Level Jacksonville Center
04:47PM 30.1581 -81.8717 343° North 437 503 40,900  Level Jacksonville Center
04:48PM 30.2772 -81.9111 344° North 437 503 40,900  Level Jacksonville Center
04:49PM 30.3925 -81.9581 341° North 437 503 40,900  Level Jacksonville Center
04:50PM 30.5222 -82.0075 342° North 447 514 40,900  Level Jacksonville Center
04:51PM 30.6397 -82.0597 339° North 454 522 40,900  Level Jacksonville Center
04:52PM 30.7589 -82.1069 341° North 449 517 40,900  Level Jacksonville Center
04:53PM 30.8822 -82.1300 351° North 443 510 40,900  Level Jacksonville Center
04:54PM 30.9825 -82.1464 352° North 443 510 40,900  Level Jacksonville Center
04:55PM 31.1183 -82.1719 351° North 443 510 40,900 -540 Level Jacksonville Center
04:56PM 31.2439 -82.1903 353° North 448 516 39,900 -1,320 Descending Jacksonville Center
04:57PM 31.3672 -82.2089 353° North 453 521 38,300 -1,560 Descending Jacksonville Center
04:58PM 31.4906 -82.2322 351° North 448 516 36,800 -1,500 Descending Jacksonville Center
04:59PM 31.6136 -82.2533 352° North 448 516 35,300 -1,620 Descending Jacksonville Center
05:00PM 31.7475 -82.2744 352° North 448 516 33,600 -900 Descending Jacksonville Center
05:02PM 31.9389 -82.2989 354° North 452 520 33,000 -240 Descending Atlanta Center
05:03PM 32.0486 -82.3775 329° Northwest 446 513 33,000  Level Atlanta Center
05:04PM 32.1519 -82.4761 321° Northwest 457 526 33,000 -600 Level Atlanta Center
05:05PM 32.2472 -82.5850 316° Northwest 469 540 31,900 -1,320 Descending Atlanta Center
05:06PM 32.3319 -82.6992 311° West 469 540 30,400 -1,500 Descending Atlanta Center
05:07PM 32.4333 -82.7911 323° Northwest 464 534 29,000 -1,500 Descending Atlanta Center
05:08PM 32.5447 -82.8906 323° Northwest 464 534 27,400 -1,500 Descending Atlanta Center
05:09PM 32.6394 -82.9733 324° Northwest 458 527 26,000 -1,500 Descending Atlanta Center
05:10PM 32.7406 -83.0658 322° Northwest 464 534 24,500 -1,620 Descending Atlanta Center
05:11PM 32.8497 -83.1658 322° Northwest 459 528 22,800 -1,800 Descending Atlanta Center
05:12PM 32.9422 -83.2542 321° Northwest 464 534 20,900 -2,040 Descending Atlanta Center
05:13PM 33.0386 -83.3400 323° Northwest 458 527 18,800 -2,220 Descending Atlanta Center
05:14PM 33.1372 -83.4311 322° Northwest 432 497 16,500 -2,100 Descending Atlanta Center
05:15PM 33.2211 -83.5075 323° Northwest 408 470 14,600 -1,800 Descending Atlanta Center
05:16PM 33.2944 -83.5792 321° Northwest 369 425 13,000 -1,680 Descending Atlanta Center
05:16PM 33.3500 -83.6333 321° Northwest 318 366 11,700 -1,140 Descending Atlanta TRACON
05:17PM 33.4167 -83.6833 328° Northwest 299 344 11,000 -1,140 Descending Atlanta TRACON
05:19PM 33.4997 -83.7572 323° Northwest 304 350 9,300 -1,560 Descending Atlanta Center
05:20PM 33.5767 -83.7347 14° North 263 303 7,600 -1,200 Descending Atlanta Center
05:21PM 33.6497 -83.6844 30° Northeast 258 297 7,000 -360 Descending Atlanta Center
05:22PM 33.7292 -83.6842 360° North 272 313 6,900 -60 Descending Atlanta Center
05:23PM 33.8083 -83.6664 11° North 277 319 6,900 -600 Level Atlanta Center
05:24PM 33.8792 -83.6233 27° Northeast 277 319 5,700 -960 Descending Atlanta Center
05:25PM 33.9458 -83.5881 24° Northeast 270 311 5,000 -300 Descending Atlanta Center
05:27PM 34.0333 -83.6500 330° Northwest 221 254 5,000  Level Atlanta TRACON
05:27PM 34.0833 -83.6833 331° Northwest 237 273 5,000 -540 Level Atlanta TRACON
05:28PM 34.1167 -83.6167 59° Northeast 228 262 4,000 -480 Descending Atlanta TRACON
05:30PM 34.1000 -83.5500 107° East 205 236 4,000  Level Atlanta TRACON
05:31PM 34.0833 -83.5833 239° Southwest 180 207 4,000  Level Atlanta TRACON
05:31PM 34.0667 -83.6500 253° West 196 226 4,000  Level Atlanta TRACON
05:32PM 34.0500 -83.7167 253° West 209 241 4,000  Level Atlanta TRACON
05:33PM 34.1000 -83.7333 345° North 242 278 4,000  Level Atlanta TRACON
05:35PM 34.1167 -83.6500 76° East 231 266 4,000  Level Atlanta TRACON
05:36PM 34.1000 -83.6167 121° Southeast 218 251 4,000  Level Atlanta TRACON
05:36PM 34.0500 -83.6167 180° South 192 221 4,000  Level Atlanta TRACON
05:37PM 34.0000 -83.6667 220° Southwest 214 246 4,000  Level Atlanta TRACON
05:38PM 33.9500 -83.7000 209° Southwest 223 257 4,000  Level Atlanta TRACON
05:39PM 33.9000 -83.7500 220° Southwest 223 257 4,000  Level Atlanta TRACON
05:40PM 33.8667 -83.8000 231° Southwest 228 262 4,000 -180 Level Atlanta TRACON
05:41PM 33.8833 -83.8667 287° West 223 257 3,700 -660 Descending Atlanta TRACON
05:42PM 33.9333 -83.8833 345° North 199 229 2,700 -900 Descending Atlanta TRACON
05:43PM 33.9667 -83.9167 320° Northwest 151 174 1,900 -840 Descending Atlanta TRACON